Time;durP1;ratioP1;P1;durP2;ratioP2;P2;SDS_P1;SDS_P2;PMS_P1;PMS_P2;Temp;Humidity;BMP_temperature;BMP_pressure;BME280_temperature;BME280_humidity;BME280_pressure;Samples;Min_cycle;Max_cycle;Signal;HPM_P1;HPM_P2
2021/07/22 00:01:31;;;;;;;11.73;9.60;;;;;;;;;;4931837;29;20449;-77
2021/07/22 00:03:58;;;;;;;12.90;9.47;;;;;;;;;;4937333;28;20513;-76
2021/07/22 00:06:25;;;;;;;12.40;9.43;;;;;;;;;;4943943;29;20447;-77
2021/07/22 00:08:53;;;;;;;10.97;9.03;;;;;;;;;;4933139;29;20818;-77
2021/07/22 00:11:20;;;;;;;12.53;9.50;;;;;;;;;;4937328;29;20455;-76
2021/07/22 00:13:48;;;;;;;10.97;9.03;;;;;;;;;;4931683;29;20467;-77
2021/07/22 00:16:16;;;;;;;11.50;9.93;;;;;;;;;;4933087;29;21082;-80
2021/07/22 00:18:43;;;;;;;11.40;8.50;;;;;;;;;;4916117;29;20454;-77
2021/07/22 00:21:10;;;;;;;12.33;11.03;;;;;;;;;;4934842;29;20461;-77
2021/07/22 00:23:37;;;;;;;13.60;10.53;;;;;;;;;;4934621;29;20464;-76
2021/07/22 00:26:06;;;;;;;13.33;10.30;;;;;;;;;;4932938;29;20958;-77
2021/07/22 00:28:33;;;;;;;13.53;9.77;;;;;;;;;;4945077;28;20460;-76
2021/07/22 00:31:00;;;;;;;11.20;9.37;;;;;;;;;;4930901;29;20445;-79
2021/07/22 00:33:27;;;;;;;12.13;10.00;;;;;;;;;;4928696;29;20825;-76
2021/07/22 00:35:56;;;;;;;12.57;10.00;;;;;;;;;;4934689;29;20451;-78
2021/07/22 00:38:23;;;;;;;11.70;9.10;;;;;;;;;;4924961;29;20458;-76
2021/07/22 00:40:50;;;;;;;12.27;9.93;;;;;;;;;;4930354;29;20463;-77
2021/07/22 00:43:19;;;;;;;11.30;8.60;;;;;;;;;;4933058;29;20822;-76
2021/07/22 00:45:46;;;;;;;11.47;9.63;;;;;;;;;;4930003;29;20795;-76
2021/07/22 00:48:13;;;;;;;12.53;10.30;;;;;;;;;;4933889;29;20446;-76
2021/07/22 00:50:40;;;;;;;10.20;8.83;;;;;;;;;;4931884;29;21007;-76
2021/07/22 00:53:07;;;;;;;11.23;9.03;;;;;;;;;;4934326;29;20453;-76
2021/07/22 00:55:34;;;;;;;11.70;9.73;;;;;;;;;;4935896;28;20446;-76
2021/07/22 00:58:01;;;;;;;12.27;9.20;;;;;;;;;;4931682;29;20444;-76
2021/07/22 01:00:30;;;;;;;12.20;9.33;;;;;;;;;;4931127;29;20475;-78
2021/07/22 01:02:57;;;;;;;10.83;9.40;;;;;;;;;;4930534;29;20931;-75
2021/07/22 01:05:24;;;;;;;12.00;8.93;;;;;;;;;;4927473;29;20440;-76
2021/07/22 01:07:51;;;;;;;11.87;9.17;;;;;;;;;;4933533;29;20456;-77
2021/07/22 01:10:18;;;;;;;10.77;8.73;;;;;;;;;;4942828;28;20452;-76
2021/07/22 01:12:46;;;;;;;16.43;10.37;;;;;;;;;;4925482;29;20474;-77
2021/07/22 01:15:13;;;;;;;12.37;9.27;;;;;;;;;;4932973;29;20426;-76
2021/07/22 01:17:42;;;;;;;12.77;9.57;;;;;;;;;;4931592;29;20472;-80
2021/07/22 01:20:12;;;;;;;11.57;10.00;;;;;;;;;;4914906;29;20530;-75
2021/07/22 01:22:40;;;;;;;14.33;10.40;;;;;;;;;;4914676;29;20456;-76
2021/07/22 01:25:08;;;;;;;17.40;10.90;;;;;;;;;;4926529;29;20482;-76
2021/07/22 01:27:35;;;;;;;14.27;10.10;;;;;;;;;;4914986;29;20467;-80
2021/07/22 01:30:02;;;;;;;11.57;9.40;;;;;;;;;;4924409;29;20497;-75
2021/07/22 01:32:29;;;;;;;12.93;9.40;;;;;;;;;;4929542;29;20429;-77
2021/07/22 01:34:56;;;;;;;14.33;10.40;;;;;;;;;;4933768;29;20447;-77
2021/07/22 01:37:25;;;;;;;11.57;9.80;;;;;;;;;;4921577;29;20653;-76
2021/07/22 01:39:52;;;;;;;14.80;9.77;;;;;;;;;;4925994;29;20478;-77
2021/07/22 01:42:19;;;;;;;15.07;11.03;;;;;;;;;;4918997;29;20446;-75
2021/07/22 01:44:47;;;;;;;14.13;10.53;;;;;;;;;;4927601;29;20466;-76
2021/07/22 01:47:14;;;;;;;12.60;10.20;;;;;;;;;;4920042;29;20457;-76
2021/07/22 01:49:41;;;;;;;13.67;10.33;;;;;;;;;;4931091;29;20429;-76
2021/07/22 01:52:08;;;;;;;12.30;9.70;;;;;;;;;;4931107;29;20927;-76
2021/07/22 01:54:37;;;;;;;14.20;10.10;;;;;;;;;;4933581;29;20447;-75
2021/07/22 01:57:04;;;;;;;13.50;10.37;;;;;;;;;;4931320;29;20478;-74
2021/07/22 01:59:35;;;;;;;14.53;10.60;;;;;;;;;;4933545;29;20999;-77
2021/07/22 02:02:03;;;;;;;11.63;9.77;;;;;;;;;;4939281;28;20449;-75
2021/07/22 02:04:30;;;;;;;13.00;10.73;;;;;;;;;;4933066;29;20482;-78
2021/07/22 02:06:57;;;;;;;16.37;11.10;;;;;;;;;;4933878;29;20441;-77
2021/07/22 02:09:25;;;;;;;13.00;9.97;;;;;;;;;;4934227;29;20466;-76
2021/07/22 02:11:54;;;;;;;11.73;9.43;;;;;;;;;;4929510;29;20469;-77
2021/07/22 02:14:21;;;;;;;12.57;10.20;;;;;;;;;;4932040;29;20436;-79
2021/07/22 02:16:48;;;;;;;12.13;10.27;;;;;;;;;;4931288;29;20949;-74
2021/07/22 02:19:16;;;;;;;13.90;10.50;;;;;;;;;;4916414;29;20445;-75
2021/07/22 02:21:43;;;;;;;13.73;9.80;;;;;;;;;;4933490;29;20450;-77
2021/07/22 02:24:17;;;;;;;14.50;11.07;;;;;;;;;;4923279;29;20486;-75
2021/07/22 02:26:48;;;;;;;13.70;9.83;;;;;;;;;;4914117;29;20951;-75
2021/07/22 02:29:17;;;;;;;11.70;9.60;;;;;;;;;;4931686;29;20429;-76
2021/07/22 02:31:44;;;;;;;12.60;10.03;;;;;;;;;;4924163;29;20485;-75
2021/07/22 02:34:11;;;;;;;14.87;9.90;;;;;;;;;;4927772;29;20469;-78
2021/07/22 02:36:38;;;;;;;13.27;9.53;;;;;;;;;;4933193;29;20443;-78
2021/07/22 02:39:05;;;;;;;13.90;10.23;;;;;;;;;;4934377;28;20854;-78
2021/07/22 02:41:32;;;;;;;12.60;9.17;;;;;;;;;;4930610;29;20446;-76
2021/07/22 02:43:59;;;;;;;13.37;10.57;;;;;;;;;;4929436;29;20487;-77
2021/07/22 02:46:28;;;;;;;15.17;10.27;;;;;;;;;;4925341;29;20473;-78
2021/07/22 02:48:57;;;;;;;13.30;10.10;;;;;;;;;;4932895;29;20466;-75
2021/07/22 02:51:27;;;;;;;12.80;10.43;;;;;;;;;;4926396;29;20526;-78
2021/07/22 02:53:54;;;;;;;16.00;10.10;;;;;;;;;;4933309;29;20474;-76
2021/07/22 02:56:21;;;;;;;13.50;10.23;;;;;;;;;;4932064;29;20470;-78
2021/07/22 02:58:49;;;;;;;11.53;9.90;;;;;;;;;;4922528;29;20479;-77
2021/07/22 03:01:16;;;;;;;12.07;9.33;;;;;;;;;;4917011;29;20733;-75
2021/07/22 03:03:47;;;;;;;12.70;9.80;;;;;;;;;;4928395;29;20462;-78
2021/07/22 03:06:15;;;;;;;14.07;10.67;;;;;;;;;;4931450;29;20510;-75
2021/07/22 03:08:43;;;;;;;13.63;10.80;;;;;;;;;;4927972;29;20452;-78
2021/07/22 03:11:10;;;;;;;16.57;12.17;;;;;;;;;;4930634;29;20803;-77
2021/07/22 03:13:38;;;;;;;11.30;9.67;;;;;;;;;;4898633;29;20527;-77
2021/07/22 03:16:06;;;;;;;14.70;10.03;;;;;;;;;;4917015;29;20865;-76
2021/07/22 03:18:33;;;;;;;13.70;10.70;;;;;;;;;;4919891;29;20522;-77
2021/07/22 03:21:02;;;;;;;10.87;9.10;;;;;;;;;;4913949;29;20979;-77
2021/07/22 03:23:29;;;;;;;13.03;8.93;;;;;;;;;;4929517;29;20465;-76
2021/07/22 03:25:56;;;;;;;15.50;9.97;;;;;;;;;;4934605;29;20490;-75
2021/07/22 03:28:23;;;;;;;10.77;8.80;;;;;;;;;;4934692;29;20470;-75
2021/07/22 03:30:50;;;;;;;12.17;9.60;;;;;;;;;;4918330;29;21187;-76
2021/07/22 03:33:18;;;;;;;12.17;9.50;;;;;;;;;;4917330;29;20787;-77
2021/07/22 03:35:45;;;;;;;13.30;10.00;;;;;;;;;;4929872;29;20473;-77
2021/07/22 03:38:13;;;;;;;14.53;10.67;;;;;;;;;;4933424;29;21129;-76
2021/07/22 03:40:40;;;;;;;12.33;9.33;;;;;;;;;;4929520;29;20717;-79
2021/07/22 03:43:07;;;;;;;13.60;9.60;;;;;;;;;;4935895;29;20461;-76
2021/07/22 03:45:35;;;;;;;14.10;10.67;;;;;;;;;;4933649;29;20827;-77
2021/07/22 03:48:02;;;;;;;13.00;9.77;;;;;;;;;;4937796;28;20484;-79
2021/07/22 03:50:29;;;;;;;15.80;11.00;;;;;;;;;;4956875;28;20817;-76
2021/07/22 03:52:57;;;;;;;15.90;9.20;;;;;;;;;;4926652;29;20467;-77
2021/07/22 03:55:27;;;;;;;13.53;9.47;;;;;;;;;;4918763;29;20448;-77
2021/07/22 03:57:55;;;;;;;13.60;9.07;;;;;;;;;;4924993;29;20478;-76
2021/07/22 04:00:23;;;;;;;19.10;9.93;;;;;;;;;;4933757;29;20913;-76
2021/07/22 04:02:59;;;;;;;19.23;9.30;;;;;;;;;;4931952;29;20470;-76
2021/07/22 04:05:27;;;;;;;12.77;9.63;;;;;;;;;;4916602;29;20688;-75
2021/07/22 04:07:56;;;;;;;12.10;9.63;;;;;;;;;;4931557;29;20486;-78
2021/07/22 04:10:23;;;;;;;13.43;9.10;;;;;;;;;;4925262;29;20471;-75
2021/07/22 04:12:54;;;;;;;13.97;10.30;;;;;;;;;;4923327;29;20470;-75
2021/07/22 04:15:22;;;;;;;15.90;10.80;;;;;;;;;;4919699;29;20463;-76
2021/07/22 04:17:50;;;;;;;14.50;10.33;;;;;;;;;;4918248;29;20471;-80
2021/07/22 04:20:18;;;;;;;12.63;10.30;;;;;;;;;;4927353;29;20455;-77
2021/07/22 04:22:45;;;;;;;15.87;9.97;;;;;;;;;;4933643;29;20445;-77
2021/07/22 04:25:12;;;;;;;16.10;8.77;;;;;;;;;;4926411;29;20498;-75
2021/07/22 04:27:40;;;;;;;12.93;9.40;;;;;;;;;;4920495;29;20976;-76
2021/07/22 04:30:09;;;;;;;12.90;9.80;;;;;;;;;;4929779;29;20809;-78
2021/07/22 04:32:37;;;;;;;13.83;10.00;;;;;;;;;;4940930;28;20619;-79
2021/07/22 04:35:07;;;;;;;13.27;10.33;;;;;;;;;;4938045;29;20469;-75
2021/07/22 04:37:35;;;;;;;15.33;11.20;;;;;;;;;;4932870;29;20462;-78
2021/07/22 04:40:02;;;;;;;13.10;10.23;;;;;;;;;;4921269;29;20495;-77
2021/07/22 04:42:30;;;;;;;14.73;11.70;;;;;;;;;;4915402;29;20459;-76
2021/07/22 04:44:57;;;;;;;14.40;10.73;;;;;;;;;;4915915;29;20909;-78
2021/07/22 04:47:26;;;;;;;15.77;11.10;;;;;;;;;;4935051;29;20471;-77
2021/07/22 04:49:53;;;;;;;13.13;10.70;;;;;;;;;;4934098;29;20459;-79
2021/07/22 04:52:20;;;;;;;14.40;11.20;;;;;;;;;;4929935;29;20486;-77
2021/07/22 04:54:47;;;;;;;17.77;12.00;;;;;;;;;;4933926;29;20448;-77
2021/07/22 04:57:15;;;;;;;15.30;12.10;;;;;;;;;;4932299;29;20974;-78
2021/07/22 04:59:42;;;;;;;22.00;12.10;;;;;;;;;;4934618;29;20648;-76
2021/07/22 05:02:10;;;;;;;16.77;11.53;;;;;;;;;;4933172;29;20459;-77
2021/07/22 05:04:38;;;;;;;17.10;11.60;;;;;;;;;;4921109;29;20460;-77
2021/07/22 05:07:06;;;;;;;19.53;13.63;;;;;;;;;;4932136;29;20542;-77
2021/07/22 05:09:33;;;;;;;16.17;12.23;;;;;;;;;;4928620;29;20804;-77
2021/07/22 05:12:00;;;;;;;17.50;13.73;;;;;;;;;;4914001;29;20454;-78
2021/07/22 05:14:27;;;;;;;15.67;12.00;;;;;;;;;;4922181;29;20438;-78
2021/07/22 05:16:55;;;;;;;19.80;15.00;;;;;;;;;;4926605;29;20449;-76
2021/07/22 05:19:22;;;;;;;17.20;12.60;;;;;;;;;;4928934;29;20460;-77
2021/07/22 05:21:50;;;;;;;20.97;13.10;;;;;;;;;;4931676;29;20454;-75
2021/07/22 05:24:18;;;;;;;14.67;12.00;;;;;;;;;;4926061;29;20465;-75
2021/07/22 05:26:45;;;;;;;14.73;11.70;;;;;;;;;;4916744;29;20447;-78
2021/07/22 05:29:13;;;;;;;14.50;12.37;;;;;;;;;;4914651;29;20515;-78
2021/07/22 05:31:42;;;;;;;19.70;11.90;;;;;;;;;;4921893;29;20841;-76
2021/07/22 05:34:09;;;;;;;15.23;12.60;;;;;;;;;;4930932;29;20451;-77
2021/07/22 05:36:36;;;;;;;16.53;13.13;;;;;;;;;;4930677;29;20460;-76
2021/07/22 05:39:05;;;;;;;16.40;13.17;;;;;;;;;;4933102;29;20474;-80
2021/07/22 05:41:32;;;;;;;18.37;13.67;;;;;;;;;;4910334;29;20447;-78
2021/07/22 05:43:59;;;;;;;18.43;12.70;;;;;;;;;;4922953;29;20466;-77
2021/07/22 05:46:27;;;;;;;17.63;14.00;;;;;;;;;;4924020;29;20490;-77
2021/07/22 05:48:54;;;;;;;14.80;11.57;;;;;;;;;;4915696;29;20479;-76
2021/07/22 05:51:21;;;;;;;17.37;13.23;;;;;;;;;;4923384;29;20467;-77
2021/07/22 05:53:48;;;;;;;13.97;11.90;;;;;;;;;;4917096;29;20926;-75
2021/07/22 05:56:18;;;;;;;17.20;13.07;;;;;;;;;;4929585;29;20458;-78
2021/07/22 05:58:46;;;;;;;16.40;13.33;;;;;;;;;;4925769;29;20600;-79
2021/07/22 06:01:13;;;;;;;13.73;11.80;;;;;;;;;;4922188;29;20505;-79
2021/07/22 06:03:41;;;;;;;16.20;11.70;;;;;;;;;;4933789;29;20509;-78
2021/07/22 06:06:08;;;;;;;16.60;11.47;;;;;;;;;;4926156;29;20482;-79
2021/07/22 06:08:35;;;;;;;13.27;11.63;;;;;;;;;;4930361;29;21006;-76
2021/07/22 06:11:06;;;;;;;14.10;11.57;;;;;;;;;;4927266;29;20447;-73
2021/07/22 06:13:34;;;;;;;14.57;11.40;;;;;;;;;;4930544;29;20462;-79
2021/07/22 06:16:02;;;;;;;14.80;12.47;;;;;;;;;;4932480;29;20477;-78
2021/07/22 06:18:29;;;;;;;17.13;12.87;;;;;;;;;;4909346;29;20581;-76
2021/07/22 06:20:56;;;;;;;14.07;11.67;;;;;;;;;;4928406;29;20466;-74
2021/07/22 06:23:24;;;;;;;13.77;11.97;;;;;;;;;;4931987;29;20470;-77
2021/07/22 06:25:51;;;;;;;13.87;12.40;;;;;;;;;;4918062;29;20487;-80
2021/07/22 06:28:18;;;;;;;15.80;12.33;;;;;;;;;;4913556;29;20475;-75
2021/07/22 06:30:47;;;;;;;15.07;12.70;;;;;;;;;;4924083;29;20458;-76
2021/07/22 06:33:14;;;;;;;18.90;12.63;;;;;;;;;;4926509;29;20463;-75
2021/07/22 06:35:41;;;;;;;14.97;12.43;;;;;;;;;;4930009;29;20445;-78
2021/07/22 06:38:08;;;;;;;14.63;12.83;;;;;;;;;;4928072;29;20498;-75
2021/07/22 06:40:36;;;;;;;16.27;12.60;;;;;;;;;;4920416;29;20474;-77
2021/07/22 06:43:03;;;;;;;14.70;12.07;;;;;;;;;;4913782;29;20447;-76
2021/07/22 06:45:30;;;;;;;14.50;11.53;;;;;;;;;;4919855;29;20491;-81
2021/07/22 06:47:59;;;;;;;14.97;11.40;;;;;;;;;;4924713;29;20482;-75
2021/07/22 06:50:26;;;;;;;17.30;12.40;;;;;;;;;;4930843;29;20561;-79
2021/07/22 06:52:53;;;;;;;16.23;11.33;;;;;;;;;;4920855;29;20459;-81
2021/07/22 06:55:20;;;;;;;16.47;11.67;;;;;;;;;;4917053;29;20440;-79
2021/07/22 06:57:48;;;;;;;13.33;11.00;;;;;;;;;;4917685;29;20462;-79
2021/07/22 07:00:16;;;;;;;15.43;11.30;;;;;;;;;;4934643;29;20461;-79
2021/07/22 07:02:43;;;;;;;14.50;11.20;;;;;;;;;;4934105;29;20445;-80
2021/07/22 07:05:12;;;;;;;12.57;10.17;;;;;;;;;;4927155;29;20482;-77
2021/07/22 07:07:39;;;;;;;16.33;10.70;;;;;;;;;;4934536;29;20489;-81
2021/07/22 07:10:07;;;;;;;12.27;9.90;;;;;;;;;;4935754;29;20474;-79
2021/07/22 07:12:34;;;;;;;12.13;10.27;;;;;;;;;;4920137;29;21334;-77
2021/07/22 07:15:01;;;;;;;16.60;11.73;;;;;;;;;;4937380;28;20931;-76
2021/07/22 07:17:28;;;;;;;16.90;10.93;;;;;;;;;;4933512;29;20490;-74
2021/07/22 07:19:55;;;;;;;15.67;10.93;;;;;;;;;;4936706;29;20450;-74
2021/07/22 07:22:24;;;;;;;14.00;10.97;;;;;;;;;;4918571;29;20828;-74
2021/07/22 07:24:51;;;;;;;16.23;11.53;;;;;;;;;;4930324;29;20952;-75
2021/07/22 07:27:18;;;;;;;19.17;10.70;;;;;;;;;;4932910;29;20490;-74
2021/07/22 07:29:45;;;;;;;15.63;10.87;;;;;;;;;;4935876;29;20467;-73
2021/07/22 07:32:12;;;;;;;11.60;9.90;;;;;;;;;;4932313;29;20461;-73
2021/07/22 07:34:40;;;;;;;12.40;10.53;;;;;;;;;;4934895;29;20481;-74
2021/07/22 07:37:07;;;;;;;12.30;9.57;;;;;;;;;;4932247;29;20474;-73
2021/07/22 07:39:35;;;;;;;13.13;10.07;;;;;;;;;;4916321;29;20483;-74
2021/07/22 07:42:02;;;;;;;12.73;10.07;;;;;;;;;;4916950;29;20447;-74
2021/07/22 07:44:30;;;;;;;14.50;10.93;;;;;;;;;;4926764;29;20528;-73
2021/07/22 07:46:57;;;;;;;12.40;9.80;;;;;;;;;;4930650;29;20489;-75
2021/07/22 07:49:24;;;;;;;14.27;10.60;;;;;;;;;;4924404;29;20659;-73
2021/07/22 07:51:51;;;;;;;11.87;9.00;;;;;;;;;;4916655;29;20832;-73
2021/07/22 07:54:21;;;;;;;12.50;9.10;;;;;;;;;;4921540;29;20936;-76
2021/07/22 07:56:50;;;;;;;11.10;8.40;;;;;;;;;;4942184;29;20457;-73
2021/07/22 07:59:17;;;;;;;11.20;9.67;;;;;;;;;;4954755;28;20474;-74
2021/07/22 08:01:44;;;;;;;13.27;9.57;;;;;;;;;;4922665;29;20460;-74
2021/07/22 08:04:12;;;;;;;11.30;9.83;;;;;;;;;;4918693;29;20443;-73
2021/07/22 08:06:39;;;;;;;10.83;9.77;;;;;;;;;;4927528;29;21041;-74
2021/07/22 08:09:06;;;;;;;14.00;9.60;;;;;;;;;;4933880;29;20466;-76
2021/07/22 08:11:33;;;;;;;12.90;10.63;;;;;;;;;;4935083;29;20450;-74
2021/07/22 08:14:02;;;;;;;11.90;10.10;;;;;;;;;;4919125;29;20976;-75
2021/07/22 08:16:29;;;;;;;13.43;10.23;;;;;;;;;;4916518;29;20451;-76
2021/07/22 08:18:56;;;;;;;11.03;9.77;;;;;;;;;;4928436;29;20494;-74
2021/07/22 08:21:23;;;;;;;10.53;9.27;;;;;;;;;;4929308;29;20458;-76
2021/07/22 08:23:50;;;;;;;11.93;9.70;;;;;;;;;;4937441;29;20525;-74
2021/07/22 08:26:17;;;;;;;11.50;9.00;;;;;;;;;;4936368;29;20505;-75
2021/07/22 08:28:45;;;;;;;12.57;8.67;;;;;;;;;;4931682;29;20490;-74
2021/07/22 08:31:16;;;;;;;11.13;10.03;;;;;;;;;;4930889;29;20469;-74
2021/07/22 08:33:43;;;;;;;11.63;8.77;;;;;;;;;;4934534;29;20454;-74
2021/07/22 08:36:10;;;;;;;12.80;10.03;;;;;;;;;;4933097;29;20933;-75
2021/07/22 08:38:37;;;;;;;10.77;9.30;;;;;;;;;;4931349;29;20486;-74
2021/07/22 08:41:05;;;;;;;10.33;9.17;;;;;;;;;;4923934;29;20474;-75
2021/07/22 08:43:33;;;;;;;12.17;9.47;;;;;;;;;;4932825;29;20434;-74
2021/07/22 08:46:00;;;;;;;9.70;8.00;;;;;;;;;;4915590;29;20484;-75
2021/07/22 08:48:29;;;;;;;10.40;9.20;;;;;;;;;;4934258;29;20467;-74
2021/07/22 08:50:57;;;;;;;11.33;10.00;;;;;;;;;;4927275;29;20894;-74
2021/07/22 08:53:25;;;;;;;14.70;9.70;;;;;;;;;;4923082;29;20456;-73
2021/07/22 08:55:53;;;;;;;12.13;10.47;;;;;;;;;;4932598;29;20474;-73
2021/07/22 08:58:21;;;;;;;12.73;10.47;;;;;;;;;;4929143;29;20506;-74
2021/07/22 09:00:48;;;;;;;11.40;10.23;;;;;;;;;;4934286;29;20443;-74
2021/07/22 09:03:15;;;;;;;14.67;10.17;;;;;;;;;;4929038;29;20462;-73
2021/07/22 09:05:44;;;;;;;11.70;10.50;;;;;;;;;;4934066;29;20443;-74
2021/07/22 09:08:11;;;;;;;12.40;10.10;;;;;;;;;;4932449;29;20486;-73
2021/07/22 09:10:38;;;;;;;13.50;10.40;;;;;;;;;;4931742;29;20462;-73
2021/07/22 09:13:05;;;;;;;12.73;11.33;;;;;;;;;;4912854;29;20827;-73
2021/07/22 09:15:35;;;;;;;10.50;9.40;;;;;;;;;;4914787;29;20452;-74
2021/07/22 09:18:20;;;;;;;10.33;9.33;;;;;;;;;;4914109;29;20479;-74
2021/07/22 09:20:49;;;;;;;10.30;9.13;;;;;;;;;;4915699;29;20511;-74
2021/07/22 09:23:19;;;;;;;13.73;9.23;;;;;;;;;;4919423;29;20462;-75
2021/07/22 09:25:46;;;;;;;10.60;9.60;;;;;;;;;;4924386;29;20467;-74
2021/07/22 09:28:14;;;;;;;11.33;8.47;;;;;;;;;;4928634;29;20859;-74
2021/07/22 09:30:54;;;;;;;13.33;8.77;;;;;;;;;;4914196;29;20486;-73
2021/07/22 09:33:32;;;;;;;10.40;9.17;;;;;;;;;;4930121;29;20466;-73
2021/07/22 09:36:01;;;;;;;9.07;7.50;;;;;;;;;;4932917;29;20932;-73
2021/07/22 09:38:28;;;;;;;9.93;7.77;;;;;;;;;;4926015;29;20603;-73
2021/07/22 09:40:56;;;;;;;8.40;7.50;;;;;;;;;;4931139;29;20968;-73
2021/07/22 09:43:36;;;;;;;10.00;7.50;;;;;;;;;;4916772;29;20940;-73
2021/07/22 09:46:03;;;;;;;8.83;7.90;;;;;;;;;;4920610;29;21005;-73
2021/07/22 09:48:30;;;;;;;10.73;8.43;;;;;;;;;;4914455;29;20959;-73
2021/07/22 09:50:57;;;;;;;8.83;6.97;;;;;;;;;;4920835;29;20903;-72
2021/07/22 09:53:27;;;;;;;8.77;7.90;;;;;;;;;;4931196;29;20451;-73
2021/07/22 09:55:55;;;;;;;9.90;7.93;;;;;;;;;;4933230;29;20450;-74
2021/07/22 09:58:22;;;;;;;8.30;7.03;;;;;;;;;;4931901;29;20484;-72
2021/07/22 10:00:51;;;;;;;8.77;7.70;;;;;;;;;;4933799;29;20457;-75
2021/07/22 10:03:20;;;;;;;11.70;7.50;;;;;;;;;;4927691;29;20979;-73
2021/07/22 10:05:48;;;;;;;7.67;6.90;;;;;;;;;;4916638;29;20510;-73
2021/07/22 10:08:18;;;;;;;8.93;7.40;;;;;;;;;;4901136;29;20563;-73
2021/07/22 10:10:47;;;;;;;8.50;7.60;;;;;;;;;;4916992;29;20511;-73
2021/07/22 10:13:16;;;;;;;10.00;8.03;;;;;;;;;;4926039;29;20447;-73
2021/07/22 10:15:45;;;;;;;8.77;7.73;;;;;;;;;;4928912;29;20458;-73
2021/07/22 10:18:13;;;;;;;9.40;8.40;;;;;;;;;;4932778;29;20937;-73
2021/07/22 10:20:41;;;;;;;7.23;6.50;;;;;;;;;;4920001;29;20550;-74
2021/07/22 10:23:12;;;;;;;7.50;6.73;;;;;;;;;;4914465;29;20443;-73
2021/07/22 10:25:39;;;;;;;6.97;6.07;;;;;;;;;;4922631;29;20477;-73
2021/07/22 10:28:08;;;;;;;7.43;6.23;;;;;;;;;;4933195;29;20498;-76
2021/07/22 10:30:35;;;;;;;7.57;6.43;;;;;;;;;;4933665;29;20473;-74
2021/07/22 10:33:03;;;;;;;7.00;6.20;;;;;;;;;;4927929;29;20761;-74
2021/07/22 10:35:32;;;;;;;6.73;5.93;;;;;;;;;;4921169;29;20459;-73
2021/07/22 10:38:08;;;;;;;8.20;6.80;;;;;;;;;;4927998;29;20468;-73
2021/07/22 10:40:51;;;;;;;8.40;6.83;;;;;;;;;;4913878;29;20519;-74
2021/07/22 10:43:34;;;;;;;6.90;6.20;;;;;;;;;;4898576;29;20464;-74
2021/07/22 10:46:03;;;;;;;8.07;7.30;;;;;;;;;;4909256;29;20473;-73
2021/07/22 10:48:30;;;;;;;8.80;7.50;;;;;;;;;;4940531;28;20484;-73
2021/07/22 10:51:00;;;;;;;11.00;7.60;;;;;;;;;;4922848;29;20980;-74
2021/07/22 10:53:42;;;;;;;11.00;9.50;;;;;;;;;;4927353;29;20454;-73
2021/07/22 10:56:10;;;;;;;8.80;7.50;;;;;;;;;;4912068;29;20466;-74
2021/07/22 10:58:52;;;;;;;9.30;7.77;;;;;;;;;;4916091;29;20511;-73
2021/07/22 11:01:34;;;;;;;10.00;8.83;;;;;;;;;;4913024;29;20458;-74
2021/07/22 11:04:03;;;;;;;8.83;7.93;;;;;;;;;;4916164;29;20819;-74
2021/07/22 11:06:30;;;;;;;10.30;8.20;;;;;;;;;;4926511;29;20482;-73
2021/07/22 11:09:12;;;;;;;10.83;9.40;;;;;;;;;;4925015;29;20497;-73
2021/07/22 11:11:47;;;;;;;16.17;10.63;;;;;;;;;;4913680;29;20461;-74
2021/07/22 11:14:29;;;;;;;10.20;8.90;;;;;;;;;;4911003;29;21207;-74
2021/07/22 11:17:00;;;;;;;11.33;9.13;;;;;;;;;;4933221;29;20465;-74
2021/07/22 11:19:29;;;;;;;11.03;9.17;;;;;;;;;;4927551;28;20478;-73
2021/07/22 11:21:58;;;;;;;9.60;8.70;;;;;;;;;;4927076;29;20439;-74
2021/07/22 11:24:27;;;;;;;11.50;10.00;;;;;;;;;;4920220;29;20477;-73
2021/07/22 11:26:55;;;;;;;12.37;9.27;;;;;;;;;;4928639;29;20493;-74
2021/07/22 11:29:23;;;;;;;11.07;9.80;;;;;;;;;;4927946;29;20828;-73
2021/07/22 11:31:50;;;;;;;10.30;9.20;;;;;;;;;;4919705;29;21251;-74
2021/07/22 11:34:18;;;;;;;12.30;10.07;;;;;;;;;;4904628;29;20459;-75
2021/07/22 11:36:46;;;;;;;10.07;9.00;;;;;;;;;;4913238;29;20474;-74
2021/07/22 11:39:14;;;;;;;11.07;9.67;;;;;;;;;;4931366;29;21196;-75
2021/07/22 11:41:41;;;;;;;11.97;9.23;;;;;;;;;;4935266;29;20448;-74
2021/07/22 11:44:10;;;;;;;9.60;8.53;;;;;;;;;;4933875;29;20466;-75
2021/07/22 11:46:39;;;;;;;10.23;9.13;;;;;;;;;;4934612;29;20988;-75
2021/07/22 11:49:07;;;;;;;10.87;9.40;;;;;;;;;;4933715;29;20470;-76
2021/07/22 11:51:34;;;;;;;10.30;9.20;;;;;;;;;;4927721;29;20839;-75
2021/07/22 11:54:03;;;;;;;10.90;9.53;;;;;;;;;;4935767;29;20450;-76
2021/07/22 11:56:32;;;;;;;10.67;9.57;;;;;;;;;;4918048;29;20811;-76
2021/07/22 11:58:59;;;;;;;11.20;9.47;;;;;;;;;;4923964;29;20485;-76
2021/07/22 12:01:26;;;;;;;11.10;9.90;;;;;;;;;;4937694;29;20453;-76
2021/07/22 12:03:53;;;;;;;10.60;9.23;;;;;;;;;;4930893;29;20452;-76
2021/07/22 12:06:24;;;;;;;8.90;8.00;;;;;;;;;;4918426;29;20821;-76
2021/07/22 12:09:06;;;;;;;10.37;9.27;;;;;;;;;;4909291;29;20489;-76
2021/07/22 12:11:48;;;;;;;12.40;8.87;;;;;;;;;;4916874;29;20466;-75
2021/07/22 12:14:24;;;;;;;9.70;8.70;;;;;;;;;;4920700;29;20460;-76
2021/07/22 12:16:51;;;;;;;8.93;8.00;;;;;;;;;;4933398;29;20468;-75
2021/07/22 12:19:23;;;;;;;9.47;8.50;;;;;;;;;;4935589;29;20473;-76
2021/07/22 12:22:10;;;;;;;10.77;8.80;;;;;;;;;;4934142;29;20479;-76
2021/07/22 12:24:38;;;;;;;11.00;8.83;;;;;;;;;;4904435;29;20455;-76
2021/07/22 12:27:05;;;;;;;10.87;8.50;;;;;;;;;;4906843;29;20895;-76
2021/07/22 12:29:34;;;;;;;8.77;7.87;;;;;;;;;;4937108;29;20501;-76
2021/07/22 12:32:10;;;;;;;11.63;8.50;;;;;;;;;;4930502;29;20473;-76
2021/07/22 12:34:38;;;;;;;10.13;9.07;;;;;;;;;;4931729;29;20442;-76
2021/07/22 12:37:05;;;;;;;12.83;9.03;;;;;;;;;;4933671;29;20454;-76
2021/07/22 12:39:32;;;;;;;12.40;9.53;;;;;;;;;;4923890;29;20486;-75
2021/07/22 12:42:09;;;;;;;10.47;9.20;;;;;;;;;;4925695;29;20546;-76
2021/07/22 12:44:43;;;;;;;11.57;9.70;;;;;;;;;;4912504;29;20463;-76
2021/07/22 12:47:25;;;;;;;11.93;9.20;;;;;;;;;;4920294;29;21509;-76
2021/07/22 12:49:53;;;;;;;10.50;9.40;;;;;;;;;;4917724;29;20465;-76
2021/07/22 12:52:20;;;;;;;10.27;9.20;;;;;;;;;;4929205;29;21000;-76
2021/07/22 12:54:47;;;;;;;9.97;9.03;;;;;;;;;;4927431;29;20460;-76
2021/07/22 12:57:14;;;;;;;9.27;8.03;;;;;;;;;;4924566;29;20947;-76
2021/07/22 12:59:43;;;;;;;11.47;8.63;;;;;;;;;;4933157;29;20458;-76
2021/07/22 13:02:10;;;;;;;11.50;8.83;;;;;;;;;;4939865;28;20462;-76
2021/07/22 13:04:37;;;;;;;10.70;9.43;;;;;;;;;;4927121;29;20458;-77
2021/07/22 13:07:05;;;;;;;11.10;8.60;;;;;;;;;;4933334;29;20489;-76
2021/07/22 13:09:32;;;;;;;9.90;9.00;;;;;;;;;;4931707;29;20479;-76
2021/07/22 13:11:59;;;;;;;10.07;8.90;;;;;;;;;;4922333;29;20465;-76
2021/07/22 13:14:26;;;;;;;9.50;8.60;;;;;;;;;;4934513;29;20453;-76
2021/07/22 13:16:55;;;;;;;11.00;8.70;;;;;;;;;;4925195;28;20485;-76
2021/07/22 13:19:22;;;;;;;12.60;10.10;;;;;;;;;;4931781;29;20816;-76
2021/07/22 13:21:49;;;;;;;10.80;9.53;;;;;;;;;;4928577;29;20466;-76
2021/07/22 13:24:16;;;;;;;9.40;8.40;;;;;;;;;;4933804;29;20447;-76
2021/07/22 13:26:43;;;;;;;13.20;9.80;;;;;;;;;;4931602;29;20554;-76
2021/07/22 13:29:10;;;;;;;10.50;9.20;;;;;;;;;;4933124;29;20489;-76
2021/07/22 13:31:38;;;;;;;9.80;8.80;;;;;;;;;;4942399;28;20470;-76
2021/07/22 13:34:06;;;;;;;11.43;9.73;;;;;;;;;;4927519;29;20466;-76
2021/07/22 13:36:33;;;;;;;12.93;10.10;;;;;;;;;;4926387;29;20459;-76
2021/07/22 13:39:01;;;;;;;12.63;9.40;;;;;;;;;;4933377;29;20563;-76
2021/07/22 13:41:28;;;;;;;10.50;9.40;;;;;;;;;;4931196;29;20517;-76
2021/07/22 13:43:55;;;;;;;10.90;9.53;;;;;;;;;;4928604;29;20944;-76
2021/07/22 13:46:22;;;;;;;10.77;9.33;;;;;;;;;;4927116;29;20473;-76
2021/07/22 13:48:49;;;;;;;11.97;9.70;;;;;;;;;;4931234;29;20481;-76
2021/07/22 13:51:18;;;;;;;11.27;10.10;;;;;;;;;;4931058;29;20952;-75
2021/07/22 13:53:45;;;;;;;10.83;9.83;;;;;;;;;;4926593;28;20805;-76
2021/07/22 13:56:12;;;;;;;13.10;9.40;;;;;;;;;;4932507;29;20936;-76
2021/07/22 13:58:39;;;;;;;11.23;10.13;;;;;;;;;;4921037;28;20875;-76
2021/07/22 14:01:06;;;;;;;9.70;8.70;;;;;;;;;;4929339;29;20970;-75
2021/07/22 14:03:33;;;;;;;11.60;9.80;;;;;;;;;;4932356;29;20446;-76
2021/07/22 14:06:01;;;;;;;12.30;10.43;;;;;;;;;;4931959;29;20466;-76
2021/07/22 14:08:29;;;;;;;11.13;9.43;;;;;;;;;;4932737;29;20474;-76
2021/07/22 14:10:56;;;;;;;12.63;10.17;;;;;;;;;;4928650;29;20466;-76
2021/07/22 14:13:23;;;;;;;9.10;8.20;;;;;;;;;;4934043;29;20473;-76
2021/07/22 14:15:51;;;;;;;11.60;9.53;;;;;;;;;;4929997;29;20455;-76
2021/07/22 14:18:18;;;;;;;11.03;9.80;;;;;;;;;;4933168;29;20998;-76
2021/07/22 14:20:45;;;;;;;10.50;9.07;;;;;;;;;;4935062;29;20439;-76
2021/07/22 14:23:13;;;;;;;12.37;10.33;;;;;;;;;;4928051;29;20450;-76
2021/07/22 14:25:41;;;;;;;13.70;9.90;;;;;;;;;;4931894;29;20446;-76
2021/07/22 14:28:08;;;;;;;10.40;9.40;;;;;;;;;;4931136;29;20505;-76
2021/07/22 14:30:39;;;;;;;11.00;9.90;;;;;;;;;;4933483;29;20451;-75
2021/07/22 14:33:06;;;;;;;10.97;9.73;;;;;;;;;;4932798;29;20865;-76